sensor_id;sensor_type;location;lat;lon;timestamp;P1;durP1;ratioP1;P2;durP2;ratioP2
24663;SDS011;12791;50.992;13.788;2023-02-03T00:01:52;7.50;;;3.22;;
24663;SDS011;12791;50.992;13.788;2023-02-03T00:04:19;6.93;;;2.95;;
24663;SDS011;12791;50.992;13.788;2023-02-03T00:06:47;5.43;;;3.25;;
24663;SDS011;12791;50.992;13.788;2023-02-03T00:09:14;6.55;;;3.33;;
24663;SDS011;12791;50.992;13.788;2023-02-03T00:11:41;5.05;;;2.83;;
24663;SDS011;12791;50.992;13.788;2023-02-03T00:14:08;6.53;;;2.40;;
24663;SDS011;12791;50.992;13.788;2023-02-03T00:16:35;4.07;;;2.53;;
24663;SDS011;12791;50.992;13.788;2023-02-03T00:19:01;5.97;;;2.50;;
24663;SDS011;12791;50.992;13.788;2023-02-03T00:21:28;6.15;;;2.33;;
24663;SDS011;12791;50.992;13.788;2023-02-03T00:23:56;4.68;;;2.47;;
24663;SDS011;12791;50.992;13.788;2023-02-03T00:26:22;5.57;;;2.50;;
24663;SDS011;12791;50.992;13.788;2023-02-03T00:28:50;6.13;;;2.90;;
24663;SDS011;12791;50.992;13.788;2023-02-03T00:31:17;5.82;;;2.63;;
24663;SDS011;12791;50.992;13.788;2023-02-03T00:33:45;7.80;;;3.03;;
24663;SDS011;12791;50.992;13.788;2023-02-03T00:36:12;4.47;;;2.92;;
24663;SDS011;12791;50.992;13.788;2023-02-03T00:38:39;6.30;;;2.85;;
24663;SDS011;12791;50.992;13.788;2023-02-03T00:41:07;6.55;;;2.60;;
24663;SDS011;12791;50.992;13.788;2023-02-03T00:43:33;5.00;;;2.03;;
24663;SDS011;12791;50.992;13.788;2023-02-03T00:46:00;6.97;;;1.98;;
24663;SDS011;12791;50.992;13.788;2023-02-03T00:48:27;9.40;;;2.22;;
24663;SDS011;12791;50.992;13.788;2023-02-03T00:50:54;5.60;;;1.98;;
24663;SDS011;12791;50.992;13.788;2023-02-03T00:53:21;5.57;;;1.95;;
24663;SDS011;12791;50.992;13.788;2023-02-03T00:55:47;6.35;;;1.77;;
24663;SDS011;12791;50.992;13.788;2023-02-03T00:58:15;6.38;;;2.10;;
24663;SDS011;12791;50.992;13.788;2023-02-03T01:00:42;5.32;;;2.03;;
24663;SDS011;12791;50.992;13.788;2023-02-03T01:03:09;4.10;;;1.38;;
24663;SDS011;12791;50.992;13.788;2023-02-03T01:05:35;5.38;;;1.63;;
24663;SDS011;12791;50.992;13.788;2023-02-03T01:08:02;6.20;;;1.50;;
24663;SDS011;12791;50.992;13.788;2023-02-03T01:10:29;11.07;;;1.90;;
24663;SDS011;12791;50.992;13.788;2023-02-03T01:12:56;6.13;;;1.95;;
24663;SDS011;12791;50.992;13.788;2023-02-03T01:15:24;3.95;;;1.20;;
24663;SDS011;12791;50.992;13.788;2023-02-03T01:17:51;4.43;;;1.45;;
24663;SDS011;12791;50.992;13.788;2023-02-03T01:20:17;4.28;;;1.33;;
24663;SDS011;12791;50.992;13.788;2023-02-03T01:22:45;3.80;;;1.65;;
24663;SDS011;12791;50.992;13.788;2023-02-03T01:25:12;4.30;;;1.40;;
24663;SDS011;12791;50.992;13.788;2023-02-03T01:27:38;4.25;;;1.45;;
24663;SDS011;12791;50.992;13.788;2023-02-03T01:30:05;8.57;;;2.00;;
24663;SDS011;12791;50.992;13.788;2023-02-03T01:32:34;5.93;;;1.60;;
24663;SDS011;12791;50.992;13.788;2023-02-03T01:35:00;6.10;;;1.55;;
24663;SDS011;12791;50.992;13.788;2023-02-03T01:37:27;3.35;;;1.55;;
24663;SDS011;12791;50.992;13.788;2023-02-03T01:39:54;7.72;;;1.85;;
24663;SDS011;12791;50.992;13.788;2023-02-03T01:42:21;10.05;;;1.80;;
24663;SDS011;12791;50.992;13.788;2023-02-03T01:44:48;5.65;;;1.92;;
24663;SDS011;12791;50.992;13.788;2023-02-03T01:47:23;3.53;;;1.45;;
24663;SDS011;12791;50.992;13.788;2023-02-03T01:49:56;4.78;;;2.05;;
24663;SDS011;12791;50.992;13.788;2023-02-03T01:52:27;3.83;;;1.73;;
24663;SDS011;12791;50.992;13.788;2023-02-03T01:54:55;5.25;;;1.60;;
24663;SDS011;12791;50.992;13.788;2023-02-03T01:57:25;5.90;;;2.20;;
24663;SDS011;12791;50.992;13.788;2023-02-03T01:59:56;5.23;;;2.00;;
24663;SDS011;12791;50.992;13.788;2023-02-03T02:02:24;3.97;;;1.67;;
24663;SDS011;12791;50.992;13.788;2023-02-03T02:04:52;4.57;;;2.05;;
24663;SDS011;12791;50.992;13.788;2023-02-03T02:07:23;3.97;;;1.80;;
24663;SDS011;12791;50.992;13.788;2023-02-03T02:09:50;5.82;;;2.00;;
24663;SDS011;12791;50.992;13.788;2023-02-03T02:12:17;7.18;;;1.70;;
24663;SDS011;12791;50.992;13.788;2023-02-03T02:14:44;7.10;;;1.63;;
24663;SDS011;12791;50.992;13.788;2023-02-03T02:17:15;6.32;;;2.05;;
24663;SDS011;12791;50.992;13.788;2023-02-03T02:20:23;6.78;;;1.52;;
24663;SDS011;12791;50.992;13.788;2023-02-03T02:23:03;4.63;;;1.73;;
24663;SDS011;12791;50.992;13.788;2023-02-03T02:25:55;4.15;;;1.33;;
24663;SDS011;12791;50.992;13.788;2023-02-03T02:28:44;4.03;;;2.08;;
24663;SDS011;12791;50.992;13.788;2023-02-03T02:31:32;4.97;;;1.40;;
24663;SDS011;12791;50.992;13.788;2023-02-03T02:34:10;4.60;;;1.50;;
24663;SDS011;12791;50.992;13.788;2023-02-03T02:36:42;6.22;;;2.28;;
24663;SDS011;12791;50.992;13.788;2023-02-03T02:39:18;6.68;;;2.78;;
24663;SDS011;12791;50.992;13.788;2023-02-03T02:41:51;6.13;;;2.75;;
24663;SDS011;12791;50.992;13.788;2023-02-03T02:44:22;6.53;;;3.63;;
24663;SDS011;12791;50.992;13.788;2023-02-03T02:46:53;6.93;;;3.45;;
24663;SDS011;12791;50.992;13.788;2023-02-03T02:49:22;9.00;;;3.63;;
24663;SDS011;12791;50.992;13.788;2023-02-03T02:51:52;10.70;;;3.75;;
24663;SDS011;12791;50.992;13.788;2023-02-03T02:54:21;4.97;;;2.78;;
24663;SDS011;12791;50.992;13.788;2023-02-03T02:56:50;5.90;;;3.33;;
24663;SDS011;12791;50.992;13.788;2023-02-03T02:59:20;4.30;;;2.47;;
24663;SDS011;12791;50.992;13.788;2023-02-03T03:01:47;5.20;;;2.58;;
24663;SDS011;12791;50.992;13.788;2023-02-03T03:04:15;5.32;;;2.35;;
24663;SDS011;12791;50.992;13.788;2023-02-03T03:06:46;5.45;;;2.75;;
24663;SDS011;12791;50.992;13.788;2023-02-03T03:09:15;2.88;;;2.03;;
24663;SDS011;12791;50.992;13.788;2023-02-03T03:11:48;3.58;;;2.10;;
24663;SDS011;12791;50.992;13.788;2023-02-03T03:14:17;3.60;;;2.13;;
24663;SDS011;12791;50.992;13.788;2023-02-03T03:16:47;2.60;;;1.45;;
24663;SDS011;12791;50.992;13.788;2023-02-03T03:19:20;1.75;;;0.90;;
24663;SDS011;12791;50.992;13.788;2023-02-03T03:21:51;0.80;;;0.80;;
24663;SDS011;12791;50.992;13.788;2023-02-03T03:24:21;0.88;;;0.80;;
24663;SDS011;12791;50.992;13.788;2023-02-03T03:26:51;0.77;;;0.70;;
24663;SDS011;12791;50.992;13.788;2023-02-03T03:29:23;1.02;;;1.00;;
24663;SDS011;12791;50.992;13.788;2023-02-03T03:31:54;1.00;;;0.90;;
24663;SDS011;12791;50.992;13.788;2023-02-03T03:34:22;2.05;;;1.20;;
24663;SDS011;12791;50.992;13.788;2023-02-03T03:36:50;1.17;;;1.08;;
24663;SDS011;12791;50.992;13.788;2023-02-03T03:39:24;1.50;;;1.40;;
24663;SDS011;12791;50.992;13.788;2023-02-03T03:42:00;3.55;;;1.42;;
24663;SDS011;12791;50.992;13.788;2023-02-03T03:44:30;1.45;;;1.35;;
24663;SDS011;12791;50.992;13.788;2023-02-03T03:47:03;1.50;;;1.40;;
24663;SDS011;12791;50.992;13.788;2023-02-03T03:49:35;1.42;;;1.25;;
24663;SDS011;12791;50.992;13.788;2023-02-03T03:52:05;1.83;;;1.73;;
24663;SDS011;12791;50.992;13.788;2023-02-03T03:54:34;1.95;;;1.85;;
24663;SDS011;12791;50.992;13.788;2023-02-03T03:57:04;2.45;;;2.25;;
24663;SDS011;12791;50.992;13.788;2023-02-03T03:59:39;2.95;;;2.70;;
24663;SDS011;12791;50.992;13.788;2023-02-03T04:02:09;3.22;;;2.95;;
24663;SDS011;12791;50.992;13.788;2023-02-03T04:04:39;3.60;;;3.30;;
24663;SDS011;12791;50.992;13.788;2023-02-03T04:07:07;3.67;;;3.33;;
24663;SDS011;12791;50.992;13.788;2023-02-03T04:09:33;3.90;;;3.60;;
24663;SDS011;12791;50.992;13.788;2023-02-03T04:12:01;3.63;;;3.33;;
24663;SDS011;12791;50.992;13.788;2023-02-03T04:14:30;3.63;;;3.33;;
24663;SDS011;12791;50.992;13.788;2023-02-03T04:16:58;4.05;;;3.75;;
24663;SDS011;12791;50.992;13.788;2023-02-03T04:19:25;3.45;;;3.15;;
24663;SDS011;12791;50.992;13.788;2023-02-03T04:21:53;3.47;;;3.17;;
24663;SDS011;12791;50.992;13.788;2023-02-03T04:24:20;2.92;;;2.65;;
24663;SDS011;12791;50.992;13.788;2023-02-03T04:26:47;2.95;;;2.75;;
24663;SDS011;12791;50.992;13.788;2023-02-03T04:29:13;2.90;;;2.60;;
24663;SDS011;12791;50.992;13.788;2023-02-03T04:31:40;3.28;;;2.97;;
24663;SDS011;12791;50.992;13.788;2023-02-03T04:34:07;3.15;;;2.90;;
24663;SDS011;12791;50.992;13.788;2023-02-03T04:36:33;3.08;;;2.85;;
24663;SDS011;12791;50.992;13.788;2023-02-03T04:39:01;3.40;;;3.10;;
24663;SDS011;12791;50.992;13.788;2023-02-03T04:41:28;4.13;;;3.72;;
24663;SDS011;12791;50.992;13.788;2023-02-03T04:43:54;5.07;;;4.20;;
24663;SDS011;12791;50.992;13.788;2023-02-03T04:46:21;5.18;;;4.75;;
24663;SDS011;12791;50.992;13.788;2023-02-03T04:48:48;7.00;;;5.18;;
24663;SDS011;12791;50.992;13.788;2023-02-03T04:51:14;5.18;;;4.55;;
24663;SDS011;12791;50.992;13.788;2023-02-03T04:53:41;6.00;;;5.43;;
24663;SDS011;12791;50.992;13.788;2023-02-03T04:56:09;6.32;;;5.72;;
24663;SDS011;12791;50.992;13.788;2023-02-03T04:58:36;8.63;;;5.60;;
24663;SDS011;12791;50.992;13.788;2023-02-03T05:01:04;6.18;;;5.18;;
24663;SDS011;12791;50.992;13.788;2023-02-03T05:03:32;6.57;;;5.88;;
24663;SDS011;12791;50.992;13.788;2023-02-03T05:05:58;6.65;;;5.22;;
24663;SDS011;12791;50.992;13.788;2023-02-03T05:08:27;5.97;;;5.38;;
24663;SDS011;12791;50.992;13.788;2023-02-03T05:10:53;6.45;;;5.47;;
24663;SDS011;12791;50.992;13.788;2023-02-03T05:13:21;6.78;;;6.07;;
24663;SDS011;12791;50.992;13.788;2023-02-03T05:15:48;7.75;;;5.93;;
24663;SDS011;12791;50.992;13.788;2023-02-03T05:18:15;6.15;;;5.55;;
24663;SDS011;12791;50.992;13.788;2023-02-03T05:20:41;5.80;;;5.18;;
24663;SDS011;12791;50.992;13.788;2023-02-03T05:23:08;6.57;;;5.93;;
24663;SDS011;12791;50.992;13.788;2023-02-03T05:25:34;7.57;;;6.18;;
24663;SDS011;12791;50.992;13.788;2023-02-03T05:28:01;8.25;;;6.90;;
24663;SDS011;12791;50.992;13.788;2023-02-03T05:30:29;8.20;;;7.40;;
24663;SDS011;12791;50.992;13.788;2023-02-03T05:32:56;7.88;;;7.07;;
24663;SDS011;12791;50.992;13.788;2023-02-03T05:35:23;8.63;;;6.82;;
24663;SDS011;12791;50.992;13.788;2023-02-03T05:37:49;7.07;;;6.38;;
24663;SDS011;12791;50.992;13.788;2023-02-03T05:40:16;9.00;;;7.53;;
24663;SDS011;12791;50.992;13.788;2023-02-03T05:43:00;7.90;;;6.97;;
24663;SDS011;12791;50.992;13.788;2023-02-03T05:45:27;9.60;;;8.02;;
24663;SDS011;12791;50.992;13.788;2023-02-03T05:47:55;8.60;;;7.00;;
24663;SDS011;12791;50.992;13.788;2023-02-03T05:50:22;9.70;;;7.25;;
24663;SDS011;12791;50.992;13.788;2023-02-03T05:52:50;8.98;;;7.53;;
24663;SDS011;12791;50.992;13.788;2023-02-03T05:55:17;10.70;;;7.68;;
24663;SDS011;12791;50.992;13.788;2023-02-03T05:57:43;8.48;;;7.55;;
24663;SDS011;12791;50.992;13.788;2023-02-03T06:00:11;8.90;;;7.95;;
24663;SDS011;12791;50.992;13.788;2023-02-03T06:02:38;8.38;;;7.45;;
24663;SDS011;12791;50.992;13.788;2023-02-03T06:05:07;8.90;;;7.63;;
24663;SDS011;12791;50.992;13.788;2023-02-03T06:07:34;9.90;;;7.43;;
24663;SDS011;12791;50.992;13.788;2023-02-03T06:10:18;10.15;;;7.13;;
24663;SDS011;12791;50.992;13.788;2023-02-03T06:12:45;8.32;;;7.53;;
24663;SDS011;12791;50.992;13.788;2023-02-03T06:15:12;8.18;;;7.38;;
24663;SDS011;12791;50.992;13.788;2023-02-03T06:17:39;8.95;;;7.35;;
24663;SDS011;12791;50.992;13.788;2023-02-03T06:20:11;8.02;;;7.20;;
24663;SDS011;12791;50.992;13.788;2023-02-03T06:22:40;8.70;;;7.07;;
24663;SDS011;12791;50.992;13.788;2023-02-03T06:25:07;6.90;;;5.88;;
24663;SDS011;12791;50.992;13.788;2023-02-03T06:27:34;7.55;;;6.80;;
24663;SDS011;12791;50.992;13.788;2023-02-03T06:30:01;8.02;;;6.40;;
24663;SDS011;12791;50.992;13.788;2023-02-03T06:32:28;7.35;;;5.80;;
24663;SDS011;12791;50.992;13.788;2023-02-03T06:34:55;6.78;;;5.85;;
24663;SDS011;12791;50.992;13.788;2023-02-03T06:37:23;7.88;;;5.88;;
24663;SDS011;12791;50.992;13.788;2023-02-03T06:39:50;6.75;;;6.15;;
24663;SDS011;12791;50.992;13.788;2023-02-03T06:42:17;6.13;;;5.53;;
24663;SDS011;12791;50.992;13.788;2023-02-03T06:44:43;6.32;;;5.72;;
24663;SDS011;12791;50.992;13.788;2023-02-03T06:47:10;6.82;;;5.85;;
24663;SDS011;12791;50.992;13.788;2023-02-03T06:49:37;6.20;;;5.60;;
24663;SDS011;12791;50.992;13.788;2023-02-03T06:52:04;6.80;;;5.97;;
24663;SDS011;12791;50.992;13.788;2023-02-03T06:54:32;8.48;;;5.85;;
24663;SDS011;12791;50.992;13.788;2023-02-03T06:56:59;6.88;;;5.60;;
24663;SDS011;12791;50.992;13.788;2023-02-03T06:59:25;7.35;;;6.00;;
24663;SDS011;12791;50.992;13.788;2023-02-03T07:01:52;5.40;;;4.90;;
24663;SDS011;12791;50.992;13.788;2023-02-03T07:04:19;7.07;;;6.00;;
24663;SDS011;12791;50.992;13.788;2023-02-03T07:06:46;5.75;;;5.15;;
24663;SDS011;12791;50.992;13.788;2023-02-03T07:09:13;7.40;;;5.47;;
24663;SDS011;12791;50.992;13.788;2023-02-03T07:11:42;6.95;;;6.18;;
24663;SDS011;12791;50.992;13.788;2023-02-03T07:14:08;7.60;;;6.10;;
24663;SDS011;12791;50.992;13.788;2023-02-03T07:16:35;7.03;;;6.18;;
24663;SDS011;12791;50.992;13.788;2023-02-03T07:19:02;6.28;;;5.43;;
24663;SDS011;12791;50.992;13.788;2023-02-03T07:21:29;6.75;;;5.72;;
24663;SDS011;12791;50.992;13.788;2023-02-03T07:23:56;5.90;;;5.00;;
24663;SDS011;12791;50.992;13.788;2023-02-03T07:26:23;6.53;;;5.65;;
24663;SDS011;12791;50.992;13.788;2023-02-03T07:28:51;5.85;;;5.20;;
24663;SDS011;12791;50.992;13.788;2023-02-03T07:31:18;4.93;;;4.35;;
24663;SDS011;12791;50.992;13.788;2023-02-03T07:33:45;7.13;;;4.93;;
24663;SDS011;12791;50.992;13.788;2023-02-03T07:36:13;4.70;;;4.30;;
24663;SDS011;12791;50.992;13.788;2023-02-03T07:55:46;5.97;;;3.75;;
24663;SDS011;12791;50.992;13.788;2023-02-03T08:21:38;3.40;;;2.33;;
24663;SDS011;12791;50.992;13.788;2023-02-03T08:24:05;3.33;;;3.03;;
24663;SDS011;12791;50.992;13.788;2023-02-03T08:26:32;3.95;;;3.55;;
24663;SDS011;12791;50.992;13.788;2023-02-03T08:29:00;3.58;;;2.97;;
24663;SDS011;12791;50.992;13.788;2023-02-03T08:31:27;3.33;;;3.05;;
24663;SDS011;12791;50.992;13.788;2023-02-03T08:33:54;3.70;;;3.05;;
24663;SDS011;12791;50.992;13.788;2023-02-03T08:36:22;4.90;;;2.92;;
24663;SDS011;12791;50.992;13.788;2023-02-03T08:38:50;3.33;;;3.03;;
24663;SDS011;12791;50.992;13.788;2023-02-03T08:41:16;3.47;;;2.97;;
24663;SDS011;12791;50.992;13.788;2023-02-03T08:43:44;4.80;;;3.30;;
24663;SDS011;12791;50.992;13.788;2023-02-03T08:46:11;3.58;;;3.22;;
24663;SDS011;12791;50.992;13.788;2023-02-03T08:48:38;2.63;;;2.42;;
24663;SDS011;12791;50.992;13.788;2023-02-03T08:51:08;3.42;;;2.67;;
24663;SDS011;12791;50.992;13.788;2023-02-03T08:53:36;5.00;;;3.05;;
24663;SDS011;12791;50.992;13.788;2023-02-03T08:56:04;3.10;;;2.40;;
24663;SDS011;12791;50.992;13.788;2023-02-03T08:58:32;2.53;;;2.33;;
24663;SDS011;12791;50.992;13.788;2023-02-03T09:01:04;3.97;;;2.42;;
24663;SDS011;12791;50.992;13.788;2023-02-03T09:03:32;2.75;;;2.50;;
24663;SDS011;12791;50.992;13.788;2023-02-03T09:05:59;3.88;;;2.30;;
24663;SDS011;12791;50.992;13.788;2023-02-03T09:08:26;2.72;;;2.53;;
24663;SDS011;12791;50.992;13.788;2023-02-03T09:10:53;3.20;;;2.67;;
24663;SDS011;12791;50.992;13.788;2023-02-03T09:13:21;3.83;;;2.40;;
24663;SDS011;12791;50.992;13.788;2023-02-03T09:15:48;2.80;;;2.40;;
24663;SDS011;12791;50.992;13.788;2023-02-03T09:18:14;3.22;;;2.60;;
24663;SDS011;12791;50.992;13.788;2023-02-03T09:20:41;4.32;;;2.53;;
24663;SDS011;12791;50.992;13.788;2023-02-03T09:23:08;2.78;;;2.50;;
24663;SDS011;12791;50.992;13.788;2023-02-03T09:25:34;3.22;;;3.03;;
24663;SDS011;12791;50.992;13.788;2023-02-03T09:28:01;3.72;;;3.30;;
24663;SDS011;12791;50.992;13.788;2023-02-03T09:30:29;4.88;;;2.65;;
24663;SDS011;12791;50.992;13.788;2023-02-03T09:32:56;8.18;;;3.45;;
24663;SDS011;12791;50.992;13.788;2023-02-03T09:35:23;3.22;;;3.00;;
24663;SDS011;12791;50.992;13.788;2023-02-03T09:37:52;3.15;;;2.80;;
24663;SDS011;12791;50.992;13.788;2023-02-03T09:40:19;3.78;;;2.92;;
24663;SDS011;12791;50.992;13.788;2023-02-03T09:42:59;5.45;;;3.45;;
24663;SDS011;12791;50.992;13.788;2023-02-03T09:45:34;3.53;;;3.17;;
24663;SDS011;12791;50.992;13.788;2023-02-03T09:48:02;6.35;;;3.42;;
24663;SDS011;12791;50.992;13.788;2023-02-03T09:50:34;3.85;;;3.17;;
24663;SDS011;12791;50.992;13.788;2023-02-03T09:53:04;3.75;;;3.42;;
24663;SDS011;12791;50.992;13.788;2023-02-03T09:55:33;3.58;;;2.83;;
24663;SDS011;12791;50.992;13.788;2023-02-03T09:58:05;3.75;;;2.63;;
24663;SDS011;12791;50.992;13.788;2023-02-03T10:00:39;3.40;;;3.05;;
24663;SDS011;12791;50.992;13.788;2023-02-03T10:03:10;3.85;;;3.13;;
24663;SDS011;12791;50.992;13.788;2023-02-03T10:05:57;3.92;;;3.53;;
24663;SDS011;12791;50.992;13.788;2023-02-03T10:08:35;4.43;;;3.60;;
24663;SDS011;12791;50.992;13.788;2023-02-03T10:11:20;5.47;;;3.25;;
24663;SDS011;12791;50.992;13.788;2023-02-03T10:14:00;5.25;;;3.78;;
24663;SDS011;12791;50.992;13.788;2023-02-03T10:16:42;5.07;;;3.40;;
24663;SDS011;12791;50.992;13.788;2023-02-03T10:19:21;4.38;;;3.28;;
24663;SDS011;12791;50.992;13.788;2023-02-03T10:21:52;3.93;;;3.03;;
24663;SDS011;12791;50.992;13.788;2023-02-03T10:24:24;3.85;;;3.10;;
24663;SDS011;12791;50.992;13.788;2023-02-03T10:26:57;7.05;;;3.45;;
24663;SDS011;12791;50.992;13.788;2023-02-03T10:29:25;6.03;;;3.33;;
24663;SDS011;12791;50.992;13.788;2023-02-03T10:32:00;5.40;;;3.20;;
24663;SDS011;12791;50.992;13.788;2023-02-03T10:34:27;3.20;;;2.90;;
24663;SDS011;12791;50.992;13.788;2023-02-03T10:36:54;3.83;;;2.75;;
24663;SDS011;12791;50.992;13.788;2023-02-03T10:39:28;3.30;;;2.63;;
24663;SDS011;12791;50.992;13.788;2023-02-03T10:41:57;5.40;;;2.78;;
24663;SDS011;12791;50.992;13.788;2023-02-03T10:44:28;4.75;;;2.55;;
24663;SDS011;12791;50.992;13.788;2023-02-03T10:46:58;4.28;;;3.20;;
24663;SDS011;12791;50.992;13.788;2023-02-03T10:49:26;3.83;;;2.75;;
24663;SDS011;12791;50.992;13.788;2023-02-03T10:51:54;3.20;;;2.90;;
24663;SDS011;12791;50.992;13.788;2023-02-03T10:54:27;8.77;;;2.72;;
24663;SDS011;12791;50.992;13.788;2023-02-03T10:56:56;4.13;;;3.00;;
24663;SDS011;12791;50.992;13.788;2023-02-03T10:59:29;7.72;;;2.83;;
24663;SDS011;12791;50.992;13.788;2023-02-03T11:01:58;6.03;;;3.10;;
24663;SDS011;12791;50.992;13.788;2023-02-03T11:04:27;3.72;;;3.13;;
24663;SDS011;12791;50.992;13.788;2023-02-03T11:06:56;5.95;;;3.05;;
24663;SDS011;12791;50.992;13.788;2023-02-03T11:09:28;4.18;;;2.92;;
24663;SDS011;12791;50.992;13.788;2023-02-03T11:12:04;4.75;;;2.60;;
24663;SDS011;12791;50.992;13.788;2023-02-03T11:14:37;4.50;;;3.08;;
24663;SDS011;12791;50.992;13.788;2023-02-03T11:17:06;3.67;;;2.90;;
24663;SDS011;12791;50.992;13.788;2023-02-03T11:19:35;5.97;;;3.05;;
24663;SDS011;12791;50.992;13.788;2023-02-03T11:22:03;4.55;;;2.65;;
24663;SDS011;12791;50.992;13.788;2023-02-03T11:24:31;4.40;;;2.65;;
24663;SDS011;12791;50.992;13.788;2023-02-03T11:27:03;3.53;;;2.70;;
24663;SDS011;12791;50.992;13.788;2023-02-03T11:29:32;3.33;;;2.95;;
24663;SDS011;12791;50.992;13.788;2023-02-03T11:32:00;3.53;;;2.88;;
24663;SDS011;12791;50.992;13.788;2023-02-03T11:34:29;3.05;;;2.70;;
24663;SDS011;12791;50.992;13.788;2023-02-03T11:37:04;3.20;;;2.50;;
24663;SDS011;12791;50.992;13.788;2023-02-03T11:39:51;3.78;;;2.20;;
24663;SDS011;12791;50.992;13.788;2023-02-03T11:42:21;3.40;;;2.45;;
24663;SDS011;12791;50.992;13.788;2023-02-03T11:44:48;2.90;;;2.28;;
24663;SDS011;12791;50.992;13.788;2023-02-03T11:47:15;2.75;;;1.67;;
24663;SDS011;12791;50.992;13.788;2023-02-03T11:49:51;3.72;;;1.80;;
24663;SDS011;12791;50.992;13.788;2023-02-03T11:52:46;1.52;;;1.40;;
24663;SDS011;12791;50.992;13.788;2023-02-03T11:55:20;2.40;;;1.30;;
24663;SDS011;12791;50.992;13.788;2023-02-03T11:57:59;2.15;;;1.20;;
24663;SDS011;12791;50.992;13.788;2023-02-03T12:00:38;1.27;;;1.17;;
24663;SDS011;12791;50.992;13.788;2023-02-03T12:06:40;1.20;;;1.10;;
24663;SDS011;12791;50.992;13.788;2023-02-03T12:09:24;3.97;;;1.20;;
24663;SDS011;12791;50.992;13.788;2023-02-03T12:12:02;2.45;;;1.10;;
24663;SDS011;12791;50.992;13.788;2023-02-03T12:14:51;2.30;;;1.23;;
24663;SDS011;12791;50.992;13.788;2023-02-03T12:17:33;2.80;;;1.23;;
24663;SDS011;12791;50.992;13.788;2023-02-03T12:20:17;1.60;;;0.80;;
24663;SDS011;12791;50.992;13.788;2023-02-03T12:22:53;1.17;;;0.70;;
24663;SDS011;12791;50.992;13.788;2023-02-03T12:25:36;0.60;;;0.60;;
24663;SDS011;12791;50.992;13.788;2023-02-03T12:28:16;1.63;;;0.90;;
24663;SDS011;12791;50.992;13.788;2023-02-03T12:30:53;2.30;;;0.77;;
24663;SDS011;12791;50.992;13.788;2023-02-03T12:33:26;1.48;;;0.70;;
24663;SDS011;12791;50.992;13.788;2023-02-03T12:35:58;0.60;;;0.60;;
24663;SDS011;12791;50.992;13.788;2023-02-03T12:38:30;1.55;;;0.80;;
24663;SDS011;12791;50.992;13.788;2023-02-03T12:41:05;1.15;;;0.60;;
24663;SDS011;12791;50.992;13.788;2023-02-03T12:43:37;0.50;;;0.50;;
24663;SDS011;12791;50.992;13.788;2023-02-03T12:46:08;1.67;;;0.68;;
24663;SDS011;12791;50.992;13.788;2023-02-03T12:48:41;0.65;;;0.65;;
24663;SDS011;12791;50.992;13.788;2023-02-03T12:51:17;1.13;;;0.60;;
24663;SDS011;12791;50.992;13.788;2023-02-03T12:53:53;1.35;;;0.70;;
24663;SDS011;12791;50.992;13.788;2023-02-03T12:56:28;1.80;;;0.65;;
24663;SDS011;12791;50.992;13.788;2023-02-03T12:59:04;1.05;;;0.80;;
24663;SDS011;12791;50.992;13.788;2023-02-03T13:01:40;1.38;;;1.00;;
24663;SDS011;12791;50.992;13.788;2023-02-03T13:06:47;1.17;;;0.88;;
24663;SDS011;12791;50.992;13.788;2023-02-03T13:09:21;3.45;;;1.10;;
24663;SDS011;12791;50.992;13.788;2023-02-03T13:11:57;1.63;;;0.98;;
24663;SDS011;12791;50.992;13.788;2023-02-03T13:14:30;2.08;;;1.10;;
24663;SDS011;12791;50.992;13.788;2023-02-03T13:17:03;2.20;;;1.05;;
24663;SDS011;12791;50.992;13.788;2023-02-03T13:19:38;3.80;;;1.90;;
24663;SDS011;12791;50.992;13.788;2023-02-03T13:22:09;2.28;;;1.38;;
24663;SDS011;12791;50.992;13.788;2023-02-03T13:24:37;8.20;;;1.15;;
24663;SDS011;12791;50.992;13.788;2023-02-03T13:27:15;5.13;;;0.80;;
24663;SDS011;12791;50.992;13.788;2023-02-03T13:30:01;5.95;;;1.00;;
24663;SDS011;12791;50.992;13.788;2023-02-03T13:32:49;8.00;;;1.63;;
24663;SDS011;12791;50.992;13.788;2023-02-03T13:35:49;2.03;;;1.00;;
24663;SDS011;12791;50.992;13.788;2023-02-03T13:41:25;4.93;;;0.80;;
24663;SDS011;12791;50.992;13.788;2023-02-03T13:44:01;6.25;;;1.35;;
24663;SDS011;12791;50.992;13.788;2023-02-03T13:46:31;9.75;;;1.15;;
24663;SDS011;12791;50.992;13.788;2023-02-03T13:49:01;7.28;;;0.98;;
24663;SDS011;12791;50.992;13.788;2023-02-03T13:51:30;9.07;;;1.27;;
24663;SDS011;12791;50.992;13.788;2023-02-03T13:54:00;6.38;;;1.25;;
24663;SDS011;12791;50.992;13.788;2023-02-03T13:56:29;9.90;;;1.77;;
24663;SDS011;12791;50.992;13.788;2023-02-03T13:58:57;10.13;;;1.50;;
24663;SDS011;12791;50.992;13.788;2023-02-03T14:01:32;9.88;;;1.50;;
24663;SDS011;12791;50.992;13.788;2023-02-03T14:04:02;12.35;;;1.70;;
24663;SDS011;12791;50.992;13.788;2023-02-03T14:09:33;12.85;;;2.03;;
24663;SDS011;12791;50.992;13.788;2023-02-03T14:14:57;10.10;;;1.45;;
24663;SDS011;12791;50.992;13.788;2023-02-03T14:17:55;13.32;;;2.10;;
24663;SDS011;12791;50.992;13.788;2023-02-03T14:20:33;12.85;;;1.92;;
24663;SDS011;12791;50.992;13.788;2023-02-03T14:23:05;14.70;;;2.20;;
24663;SDS011;12791;50.992;13.788;2023-02-03T14:25:37;16.52;;;2.33;;
24663;SDS011;12791;50.992;13.788;2023-02-03T14:28:07;15.68;;;2.78;;
24663;SDS011;12791;50.992;13.788;2023-02-03T14:36:52;16.55;;;2.55;;
24663;SDS011;12791;50.992;13.788;2023-02-03T16:05:19;18.80;;;2.63;;
24663;SDS011;12791;50.992;13.788;2023-02-03T16:18:13;18.90;;;2.35;;
24663;SDS011;12791;50.992;13.788;2023-02-03T16:24:38;14.40;;;2.05;;
24663;SDS011;12791;50.992;13.788;2023-02-03T16:31:14;15.10;;;2.67;;
24663;SDS011;12791;50.992;13.788;2023-02-03T16:34:12;13.65;;;2.47;;
24663;SDS011;12791;50.992;13.788;2023-02-03T16:40:07;15.20;;;2.30;;
24663;SDS011;12791;50.992;13.788;2023-02-03T16:42:53;15.50;;;2.15;;
24663;SDS011;12791;50.992;13.788;2023-02-03T16:45:38;13.43;;;2.17;;
24663;SDS011;12791;50.992;13.788;2023-02-03T16:48:22;16.90;;;2.42;;
24663;SDS011;12791;50.992;13.788;2023-02-03T16:51:09;14.60;;;2.42;;
24663;SDS011;12791;50.992;13.788;2023-02-03T16:56:09;19.33;;;2.50;;
24663;SDS011;12791;50.992;13.788;2023-02-03T16:58:37;16.52;;;2.13;;
24663;SDS011;12791;50.992;13.788;2023-02-03T17:01:05;13.23;;;2.58;;
24663;SDS011;12791;50.992;13.788;2023-02-03T17:03:48;15.68;;;2.72;;
24663;SDS011;12791;50.992;13.788;2023-02-03T17:06:25;10.20;;;2.15;;
24663;SDS011;12791;50.992;13.788;2023-02-03T17:08:52;14.98;;;2.42;;
24663;SDS011;12791;50.992;13.788;2023-02-03T17:11:21;16.48;;;2.85;;
24663;SDS011;12791;50.992;13.788;2023-02-03T17:13:49;16.98;;;2.58;;
24663;SDS011;12791;50.992;13.788;2023-02-03T17:16:16;15.57;;;2.83;;
24663;SDS011;12791;50.992;13.788;2023-02-03T17:18:50;16.67;;;3.10;;
24663;SDS011;12791;50.992;13.788;2023-02-03T17:21:32;17.27;;;2.78;;
24663;SDS011;12791;50.992;13.788;2023-02-03T17:24:04;22.25;;;2.58;;
24663;SDS011;12791;50.992;13.788;2023-02-03T17:26:34;16.63;;;2.78;;
24663;SDS011;12791;50.992;13.788;2023-02-03T17:32:29;17.42;;;2.65;;
24663;SDS011;12791;50.992;13.788;2023-02-03T17:34:55;15.52;;;2.40;;
24663;SDS011;12791;50.992;13.788;2023-02-03T17:37:22;15.63;;;2.80;;
24663;SDS011;12791;50.992;13.788;2023-02-03T17:39:58;13.45;;;2.83;;
24663;SDS011;12791;50.992;13.788;2023-02-03T17:42:27;18.40;;;3.50;;
24663;SDS011;12791;50.992;13.788;2023-02-03T17:45:07;18.65;;;2.65;;
24663;SDS011;12791;50.992;13.788;2023-02-03T17:47:44;16.63;;;2.42;;
24663;SDS011;12791;50.992;13.788;2023-02-03T17:50:26;12.10;;;1.80;;